Time;durP1;ratioP1;P1;durP2;ratioP2;P2;SDS_P1;SDS_P2;PMS_P1;PMS_P2;Temp;Humidity;BMP_temperature;BMP_pressure;BME280_temperature;BME280_humidity;BME280_pressure;Samples;Min_cycle;Max_cycle;Signal;HPM_P1;HPM_P2
2022/09/25 03:00:55;;;;;;;1.50;1.50;;;15.00;86.10;;;;;;6020619;23;20485;31
2022/09/25 03:03:24;;;;;;;1.27;1.27;;;15.00;86.20;;;;;;4899154;29;20522;-72
2022/09/25 03:05:55;;;;;;;1.23;1.23;;;14.90;86.40;;;;;;4900306;29;20513;-72
2022/09/25 03:08:38;;;;;;;1.30;1.30;;;14.90;86.60;;;;;;4899919;29;20906;-72
2022/09/25 03:11:06;;;;;;;1.20;1.20;;;14.90;86.60;;;;;;4894753;29;20479;-72
2022/09/25 03:13:33;;;;;;;1.33;1.33;;;15.00;86.70;;;;;;4881398;29;20466;-72
2022/09/25 03:16:04;;;;;;;1.33;1.33;;;15.00;86.60;;;;;;4882535;29;20903;-72
2022/09/25 03:18:31;;;;;;;1.23;1.23;;;15.00;86.90;;;;;;4881331;29;20546;-72
2022/09/25 03:20:58;;;;;;;1.27;1.27;;;15.00;86.90;;;;;;4881229;29;20471;-71
2022/09/25 03:23:25;;;;;;;1.50;1.50;;;15.00;86.90;;;;;;4881271;29;20463;-71
2022/09/25 03:25:54;;;;;;;1.10;1.10;;;15.00;86.90;;;;;;4881630;29;20450;-72
2022/09/25 03:28:21;;;;;;;1.30;1.30;;;15.00;86.80;;;;;;4881413;29;20538;-72
2022/09/25 03:30:57;;;;;;;1.40;1.40;;;15.00;86.60;;;;;;4881009;29;20475;-72
2022/09/25 03:33:26;;;;;;;1.30;1.30;;;15.00;86.60;;;;;;4881120;29;20434;-72
2022/09/25 03:36:01;;;;;;;1.20;1.20;;;15.00;86.40;;;;;;4881024;29;20455;-72
2022/09/25 03:38:27;;;;;;;1.27;1.27;;;15.00;86.40;;;;;;4880927;29;20557;-72
2022/09/25 03:40:54;;;;;;;1.10;1.10;;;15.00;86.40;;;;;;4880554;29;20478;-72
2022/09/25 03:43:21;;;;;;;1.17;1.17;;;15.10;86.50;;;;;;4880865;29;20459;-72
2022/09/25 03:45:47;;;;;;;1.10;1.10;;;15.10;86.30;;;;;;4880821;29;20590;-72
2022/09/25 03:48:14;;;;;;;1.40;1.40;;;15.10;86.30;;;;;;4880791;29;20451;-72
2022/09/25 03:50:42;;;;;;;1.20;1.20;;;15.10;86.20;;;;;;4880710;29;20549;-71
2022/09/25 03:53:09;;;;;;;1.37;1.37;;;15.00;86.20;;;;;;4880690;29;20454;-72
2022/09/25 03:55:35;;;;;;;1.50;1.43;;;15.10;86.10;;;;;;4880648;29;20534;-72
2022/09/25 03:58:02;;;;;;;1.10;1.10;;;15.10;86.20;;;;;;4880027;29;20910;-72
2022/09/25 04:00:29;;;;;;;1.20;1.20;;;15.10;86.20;;;;;;4879822;29;20451;-71
2022/09/25 04:02:58;;;;;;;1.70;1.60;;;15.10;86.10;;;;;;4880192;29;20466;-72
2022/09/25 04:05:24;;;;;;;1.33;1.33;;;15.10;86.20;;;;;;4880517;29;20461;-72
2022/09/25 04:07:52;;;;;;;1.00;1.00;;;15.10;86.10;;;;;;4880449;29;20454;-71
2022/09/25 04:10:19;;;;;;;1.50;1.40;;;15.10;86.10;;;;;;4880446;29;20491;-71
2022/09/25 04:12:46;;;;;;;1.10;1.10;;;15.10;86.10;;;;;;4880282;29;20482;-72
2022/09/25 04:15:14;;;;;;;1.13;1.13;;;15.10;86.00;;;;;;4880311;29;20478;-71
2022/09/25 04:17:40;;;;;;;1.20;1.20;;;15.10;85.90;;;;;;4880204;29;20482;-72
2022/09/25 04:20:08;;;;;;;1.63;1.10;;;15.10;86.00;;;;;;4880228;29;20506;-72
2022/09/25 04:22:35;;;;;;;1.20;1.20;;;15.10;86.00;;;;;;4880156;29;20511;-72
2022/09/25 04:25:03;;;;;;;1.10;1.10;;;15.10;86.20;;;;;;4879846;29;20876;-71
2022/09/25 04:27:29;;;;;;;1.00;1.00;;;15.00;86.20;;;;;;4879790;29;21010;-71
2022/09/25 04:29:56;;;;;;;1.00;1.00;;;15.00;86.60;;;;;;4880092;29;20827;-71
2022/09/25 04:35:07;;;;;;;1.00;1.00;;;15.00;86.50;;;;;;4880358;29;20803;-71
2022/09/25 04:37:34;;;;;;;1.57;1.20;;;15.00;86.30;;;;;;4879900;29;20568;-72
2022/09/25 04:40:02;;;;;;;1.17;1.17;;;15.00;86.40;;;;;;4879632;29;20969;-71
2022/09/25 04:42:29;;;;;;;1.40;1.30;;;15.00;86.60;;;;;;4879831;29;20507;-72
2022/09/25 04:44:57;;;;;;;1.00;1.00;;;15.10;86.70;;;;;;4880062;29;20518;-72
2022/09/25 04:47:25;;;;;;;1.20;1.20;;;15.10;86.70;;;;;;4879906;29;20871;-72
2022/09/25 04:49:52;;;;;;;1.07;1.07;;;15.10;86.70;;;;;;4879519;29;20860;-71
2022/09/25 04:52:19;;;;;;;1.20;1.20;;;15.10;86.60;;;;;;4879432;29;20991;-72
2022/09/25 04:54:47;;;;;;;1.30;1.20;;;15.10;86.60;;;;;;4879767;29;20538;-72
2022/09/25 04:57:17;;;;;;;1.10;1.10;;;15.10;86.50;;;;;;4879921;29;20450;-71
2022/09/25 04:59:43;;;;;;;1.30;1.30;;;15.20;86.50;;;;;;4879741;29;20815;-72
2022/09/25 05:02:10;;;;;;;1.13;1.13;;;15.20;86.30;;;;;;4879326;29;20502;-72
2022/09/25 05:04:37;;;;;;;1.37;1.37;;;15.20;86.40;;;;;;4879661;29;20463;-72
2022/09/25 05:07:04;;;;;;;1.13;1.13;;;15.20;86.40;;;;;;4879671;29;20465;-72
2022/09/25 05:09:31;;;;;;;1.10;1.10;;;15.20;86.50;;;;;;4879654;29;20450;-72
2022/09/25 05:11:58;;;;;;;1.30;1.30;;;15.10;86.60;;;;;;4882889;29;20994;-72
2022/09/25 05:14:26;;;;;;;1.10;1.10;;;14.90;86.60;;;;;;4883501;29;20451;-72
2022/09/25 05:16:53;;;;;;;1.50;1.50;;;14.80;87.40;;;;;;4883467;29;20459;-71
2022/09/25 05:19:20;;;;;;;1.17;1.17;;;14.80;87.50;;;;;;4883027;29;21005;-72
2022/09/25 05:21:46;;;;;;;1.20;1.20;;;14.80;87.30;;;;;;4883375;29;20511;-72
2022/09/25 05:24:13;;;;;;;1.10;1.10;;;14.90;87.20;;;;;;4883327;29;20451;-72
2022/09/25 05:26:41;;;;;;;1.20;1.20;;;14.90;87.20;;;;;;4883297;29;20581;-72
2022/09/25 05:29:07;;;;;;;1.00;1.00;;;14.90;87.20;;;;;;4883286;29;20454;-71
2022/09/25 05:31:35;;;;;;;1.70;1.20;;;14.80;87.00;;;;;;4883158;29;20478;-72
2022/09/25 05:34:02;;;;;;;1.20;1.20;;;14.80;87.50;;;;;;4883133;29;20458;-72
2022/09/25 05:36:29;;;;;;;1.10;1.10;;;14.60;87.80;;;;;;4883152;29;20458;-72
2022/09/25 05:38:56;;;;;;;0.93;0.93;;;14.50;87.90;;;;;;4882977;29;20482;-72
2022/09/25 05:41:23;;;;;;;0.93;0.93;;;14.60;87.90;;;;;;4882995;29;20532;-72
2022/09/25 05:43:50;;;;;;;0.90;0.90;;;14.70;87.80;;;;;;4882925;29;20462;-72
2022/09/25 05:46:16;;;;;;;1.10;1.10;;;14.70;87.70;;;;;;4882607;29;20863;-71
2022/09/25 05:48:44;;;;;;;1.10;1.10;;;14.70;87.50;;;;;;4882940;29;20505;-72
2022/09/25 05:51:11;;;;;;;0.97;0.97;;;14.80;87.50;;;;;;4882823;29;20542;-72
2022/09/25 05:53:38;;;;;;;0.90;0.90;;;14.80;87.50;;;;;;4882820;29;20461;-72
2022/09/25 05:56:05;;;;;;;0.97;0.97;;;14.80;87.20;;;;;;4882792;29;20610;-72
2022/09/25 05:58:34;;;;;;;0.90;0.90;;;14.70;86.80;;;;;;4882376;29;20997;-72
2022/09/25 06:01:02;;;;;;;1.10;1.10;;;14.60;87.50;;;;;;4882498;29;20494;-72
2022/09/25 06:03:30;;;;;;;1.07;1.07;;;14.70;87.30;;;;;;4882417;29;20887;-72
2022/09/25 06:05:58;;;;;;;1.00;1.00;;;14.80;87.30;;;;;;4882616;29;20567;-72
2022/09/25 06:08:25;;;;;;;0.90;0.90;;;14.90;87.20;;;;;;4882293;29;20962;-71
2022/09/25 06:10:53;;;;;;;0.90;0.90;;;14.80;87.40;;;;;;4882436;29;20485;-72
2022/09/25 06:13:21;;;;;;;1.13;1.13;;;14.80;86.80;;;;;;4882489;29;20959;-72
2022/09/25 06:15:51;;;;;;;1.10;1.10;;;14.60;87.30;;;;;;4882440;29;20558;-72
2022/09/25 06:18:18;;;;;;;1.10;1.10;;;14.40;87.70;;;;;;4882365;29;20482;-72
2022/09/25 06:20:45;;;;;;;1.13;1.13;;;14.00;89.30;;;;;;4882305;29;20889;-72
2022/09/25 06:23:13;;;;;;;1.10;1.10;;;14.10;90.00;;;;;;4880948;29;20939;-72
2022/09/25 06:25:40;;;;;;;1.10;1.10;;;13.90;90.70;;;;;;4882445;29;20454;-72
2022/09/25 06:28:07;;;;;;;1.50;1.40;;;13.90;90.60;;;;;;4882226;29;20541;-73
2022/09/25 06:30:37;;;;;;;1.20;1.20;;;14.00;90.80;;;;;;4882130;29;20455;-73
2022/09/25 06:33:06;;;;;;;1.10;1.10;;;13.90;90.80;;;;;;4882121;29;20461;-73
2022/09/25 06:35:34;;;;;;;1.50;1.40;;;13.80;91.10;;;;;;4881848;29;20459;-73
2022/09/25 06:38:01;;;;;;;1.40;1.40;;;13.70;91.40;;;;;;4882023;29;20533;-72
2022/09/25 06:40:30;;;;;;;1.37;1.30;;;13.80;91.60;;;;;;4881933;29;20511;-72
2022/09/25 06:42:57;;;;;;;1.33;1.33;;;14.00;91.20;;;;;;4882045;29;20487;-73
2022/09/25 06:45:25;;;;;;;1.37;1.37;;;14.10;91.00;;;;;;4882064;29;20514;-73
2022/09/25 06:47:56;;;;;;;1.50;1.47;;;14.20;90.50;;;;;;4881932;29;20455;-73
2022/09/25 06:50:24;;;;;;;1.40;1.40;;;14.40;89.90;;;;;;4881909;29;20448;-73
2022/09/25 06:52:51;;;;;;;2.00;1.90;;;14.40;89.60;;;;;;4881475;29;20873;-72
2022/09/25 06:55:17;;;;;;;1.20;1.20;;;14.40;89.00;;;;;;4881763;29;20451;-73
2022/09/25 06:57:47;;;;;;;1.10;1.10;;;14.50;89.00;;;;;;4881431;29;20942;-73
2022/09/25 07:00:14;;;;;;;1.20;1.20;;;14.70;88.80;;;;;;4881644;29;20547;-73
2022/09/25 07:05:25;;;;;;;1.40;1.40;;;14.80;88.20;;;;;;4881402;29;20410;-72
2022/09/25 07:07:51;;;;;;;1.50;1.50;;;14.80;88.00;;;;;;4881655;29;20519;-72
2022/09/25 07:10:18;;;;;;;1.70;1.60;;;14.50;88.50;;;;;;4881523;29;20502;-72
2022/09/25 07:12:46;;;;;;;1.30;1.30;;;14.40;88.50;;;;;;4881426;29;20519;-73
2022/09/25 07:15:14;;;;;;;1.23;1.23;;;14.30;89.50;;;;;;4881442;29;20459;-72
2022/09/25 07:17:42;;;;;;;1.50;1.50;;;14.10;90.00;;;;;;4881568;29;20455;-72
2022/09/25 07:20:11;;;;;;;1.37;1.37;;;14.30;90.50;;;;;;4881007;29;21081;-72
2022/09/25 07:22:38;;;;;;;1.30;1.30;;;14.40;90.10;;;;;;4881234;29;20475;-72
2022/09/25 07:25:05;;;;;;;1.60;1.60;;;14.50;89.30;;;;;;4881358;29;20455;-72
2022/09/25 07:27:32;;;;;;;1.30;1.30;;;14.50;89.60;;;;;;4881499;29;20459;-72
2022/09/25 07:29:59;;;;;;;1.30;1.30;;;14.50;89.20;;;;;;4881126;29;20450;-72
2022/09/25 07:32:28;;;;;;;1.10;1.10;;;14.60;89.20;;;;;;4881049;29;20482;-73
2022/09/25 07:34:54;;;;;;;1.03;1.03;;;14.70;88.40;;;;;;4880550;29;20887;-73
2022/09/25 07:37:21;;;;;;;1.23;1.23;;;14.50;88.70;;;;;;4880996;29;20514;-72
2022/09/25 07:39:48;;;;;;;1.10;1.10;;;14.50;89.20;;;;;;4880897;29;20490;-72
2022/09/25 07:42:15;;;;;;;1.20;1.20;;;14.60;89.60;;;;;;4880857;29;20487;-72
2022/09/25 07:44:42;;;;;;;1.37;1.37;;;14.70;89.10;;;;;;4880884;29;20477;-73
2022/09/25 07:47:13;;;;;;;1.30;1.30;;;14.80;89.10;;;;;;4880825;29;20510;-73
2022/09/25 07:49:41;;;;;;;1.40;1.40;;;14.50;88.40;;;;;;4880820;29;20450;-72
2022/09/25 07:52:08;;;;;;;1.40;1.40;;;14.20;89.50;;;;;;4880358;29;20885;-73
2022/09/25 07:54:36;;;;;;;1.47;1.40;;;14.00;91.10;;;;;;4880704;29;20451;-73
2022/09/25 07:57:03;;;;;;;1.33;1.33;;;14.10;91.40;;;;;;4880388;29;20959;-72
2022/09/25 07:59:30;;;;;;;1.10;1.10;;;14.30;91.30;;;;;;4880527;29;20487;-72
2022/09/25 08:01:57;;;;;;;1.20;1.20;;;14.40;90.90;;;;;;4880240;29;20540;-72
2022/09/25 08:04:24;;;;;;;1.20;1.20;;;14.40;89.60;;;;;;4880524;29;20535;-73
2022/09/25 08:06:52;;;;;;;1.30;1.30;;;14.40;89.90;;;;;;4880531;29;20941;-72
2022/09/25 08:09:18;;;;;;;1.13;1.13;;;14.50;90.30;;;;;;4880630;29;20848;-73
2022/09/25 08:11:45;;;;;;;1.30;1.30;;;14.60;90.60;;;;;;4880378;29;20526;-72
2022/09/25 08:14:14;;;;;;;1.13;1.13;;;14.80;90.00;;;;;;4880392;29;20507;-72
2022/09/25 08:16:41;;;;;;;1.00;1.00;;;14.90;88.80;;;;;;4880345;29;20447;-72
2022/09/25 08:19:08;;;;;;;1.10;1.10;;;14.90;88.40;;;;;;4880253;29;20519;-72
2022/09/25 08:21:35;;;;;;;1.10;1.10;;;14.90;88.20;;;;;;4880125;29;20570;-72
2022/09/25 08:24:04;;;;;;;1.00;1.00;;;15.00;88.10;;;;;;4880211;29;20533;-72
2022/09/25 08:26:30;;;;;;;1.00;1.00;;;15.10;87.80;;;;;;4880308;29;20467;-72
2022/09/25 08:28:58;;;;;;;0.90;0.90;;;15.20;87.60;;;;;;4879944;29;20881;-73
2022/09/25 08:31:25;;;;;;;0.97;0.97;;;15.30;87.70;;;;;;4880127;29;20889;-72
2022/09/25 08:33:53;;;;;;;1.20;1.10;;;15.50;87.10;;;;;;4880095;29;20507;-73
2022/09/25 08:36:20;;;;;;;1.20;1.10;;;15.70;86.60;;;;;;4879871;29;20945;-73
2022/09/25 08:38:48;;;;;;;0.80;0.80;;;15.90;86.00;;;;;;4880104;29;20487;-73
2022/09/25 08:41:20;;;;;;;1.00;1.00;;;15.90;85.10;;;;;;4879885;29;20522;-72
2022/09/25 08:43:57;;;;;;;0.93;0.83;;;16.00;84.40;;;;;;4880035;29;20439;-73
2022/09/25 08:49:14;;;;;;;1.00;1.00;;;16.00;83.70;;;;;;4879963;29;20411;-72
2022/09/25 08:51:44;;;;;;;0.90;0.90;;;15.90;84.40;;;;;;4879740;29;20475;-72
2022/09/25 08:54:18;;;;;;;0.90;0.90;;;16.00;84.70;;;;;;4879849;29;20435;-72
2022/09/25 08:56:50;;;;;;;1.00;1.00;;;16.00;83.80;;;;;;4879817;29;20435;-71
2022/09/25 08:59:31;;;;;;;1.00;1.00;;;15.90;84.10;;;;;;4879659;29;20471;-72
2022/09/25 09:02:01;;;;;;;0.93;0.93;;;15.80;85.30;;;;;;4879422;29;20553;-72
2022/09/25 09:04:31;;;;;;;0.90;0.90;;;15.50;84.40;;;;;;4879767;29;20526;-72
2022/09/25 09:07:05;;;;;;;1.00;1.00;;;15.20;85.60;;;;;;4879767;29;20526;-72
2022/09/25 09:09:37;;;;;;;1.03;1.00;;;15.30;86.60;;;;;;4879661;29;20431;-72
2022/09/25 09:12:11;;;;;;;0.90;0.90;;;15.40;87.20;;;;;;4879591;29;20526;-72
2022/09/25 09:14:43;;;;;;;1.13;1.03;;;15.40;87.10;;;;;;4880851;29;20447;-72
2022/09/25 09:17:17;;;;;;;0.97;0.97;;;15.40;87.80;;;;;;4879621;29;20443;-72
2022/09/25 09:19:48;;;;;;;0.80;0.80;;;15.60;87.20;;;;;;4879655;29;20613;-72
2022/09/25 09:22:19;;;;;;;1.03;1.03;;;15.40;85.90;;;;;;4879515;29;20571;-71
2022/09/25 09:24:54;;;;;;;1.00;1.00;;;15.60;86.40;;;;;;4879528;29;20451;-72
2022/09/25 09:27:35;;;;;;;1.00;1.00;;;15.70;85.10;;;;;;4879250;29;20439;-72
2022/09/25 09:30:13;;;;;;;0.90;0.90;;;15.90;83.90;;;;;;4879540;29;20511;-72
2022/09/25 09:33:10;;;;;;;0.80;0.80;;;16.10;83.00;;;;;;4879447;29;20514;-72
2022/09/25 09:35:45;;;;;;;0.73;0.73;;;16.20;81.70;;;;;;4879494;29;20439;-72
2022/09/25 09:38:20;;;;;;;1.57;0.87;;;16.20;80.50;;;;;;4879153;29;20967;-72
2022/09/25 09:40:59;;;;;;;0.90;0.90;;;16.50;81.10;;;;;;4878996;29;20904;-72
2022/09/25 09:43:37;;;;;;;1.30;1.20;;;16.70;81.60;;;;;;4879366;29;20495;-72
2022/09/25 09:46:14;;;;;;;0.80;0.80;;;16.80;81.30;;;;;;4879353;29;20439;-72
2022/09/25 09:48:50;;;;;;;0.80;0.80;;;16.90;80.60;;;;;;4879357;29;20458;-72
2022/09/25 09:51:21;;;;;;;1.00;1.00;;;17.10;80.60;;;;;;4879209;29;20475;-72
2022/09/25 09:53:51;;;;;;;0.80;0.80;;;17.10;79.20;;;;;;4879318;29;20498;-72
2022/09/25 09:56:21;;;;;;;0.90;0.90;;;17.00;77.80;;;;;;4880075;29;20430;-72
2022/09/25 09:58:53;;;;;;;0.80;0.80;;;17.00;79.30;;;;;;4882714;29;20451;-72
2022/09/25 10:01:23;;;;;;;0.87;0.87;;;17.10;79.60;;;;;;4882394;29;20534;-72
2022/09/25 10:03:58;;;;;;;0.70;0.70;;;16.90;80.00;;;;;;4882789;29;20490;-72
2022/09/25 10:06:28;;;;;;;0.90;0.90;;;16.70;80.30;;;;;;4882417;29;20918;-72
2022/09/25 10:08:54;;;;;;;0.80;0.80;;;16.70;80.90;;;;;;4882590;29;20455;-72
2022/09/25 10:11:22;;;;;;;0.70;0.70;;;16.80;82.10;;;;;;4882487;29;20506;-72
2022/09/25 10:13:50;;;;;;;0.70;0.70;;;16.90;82.70;;;;;;4882488;29;20510;-72
2022/09/25 10:16:19;;;;;;;0.90;0.90;;;17.00;82.60;;;;;;4882465;29;20454;-72
2022/09/25 10:18:51;;;;;;;1.30;0.83;;;17.00;79.70;;;;;;4882437;29;20506;-72
2022/09/25 10:21:20;;;;;;;0.73;0.73;;;17.10;81.40;;;;;;4882398;29;20907;-72
2022/09/25 10:23:52;;;;;;;0.80;0.80;;;17.10;79.80;;;;;;4882378;29;20498;-72
2022/09/25 10:26:30;;;;;;;0.80;0.80;;;17.20;78.10;;;;;;4882030;29;20959;-72
2022/09/25 10:29:01;;;;;;;0.80;0.80;;;17.40;77.30;;;;;;4882295;29;20930;-73
2022/09/25 10:31:30;;;;;;;0.83;0.83;;;17.40;76.80;;;;;;4881863;29;20842;-72
2022/09/25 10:34:01;;;;;;;0.90;0.60;;;17.50;76.30;;;;;;4882124;29;20541;-72
2022/09/25 10:36:38;;;;;;;0.93;0.93;;;17.50;75.20;;;;;;4882165;29;20439;-72
2022/09/25 10:39:06;;;;;;;0.97;0.97;;;17.30;76.40;;;;;;4882023;29;20518;-72
2022/09/25 10:41:42;;;;;;;1.27;1.27;;;17.30;77.60;;;;;;4881995;29;20530;-72
2022/09/25 10:44:22;;;;;;;0.83;0.83;;;17.30;77.80;;;;;;4881694;29;20865;-72
2022/09/25 10:52:44;;;;;;;0.80;0.80;;;17.40;77.40;;;;;;4881807;29;20454;-72
2022/09/25 10:55:21;;;;;;;0.90;0.77;;;17.40;76.80;;;;;;4881516;29;20915;-72
2022/09/25 10:57:49;;;;;;;0.80;0.80;;;17.50;76.90;;;;;;4881472;29;20443;-73
2022/09/25 11:00:23;;;;;;;0.70;0.70;;;17.60;76.60;;;;;;4881592;29;20577;-73
2022/09/25 11:02:53;;;;;;;1.00;1.00;;;17.50;76.70;;;;;;4881394;29;21041;-72
2022/09/25 11:05:23;;;;;;;0.90;0.90;;;17.60;76.50;;;;;;4881328;29;20541;-72
2022/09/25 11:07:54;;;;;;;0.87;0.87;;;17.50;76.20;;;;;;4881097;29;20502;-72
2022/09/25 11:10:22;;;;;;;1.00;0.90;;;17.50;75.60;;;;;;4881286;29;20823;-72
2022/09/25 11:12:49;;;;;;;1.00;1.00;;;17.60;75.60;;;;;;4881454;29;20549;-72
2022/09/25 11:15:20;;;;;;;0.87;0.87;;;17.50;75.70;;;;;;4881383;29;20506;-72
2022/09/25 11:17:50;;;;;;;0.90;0.90;;;17.50;75.80;;;;;;4881395;29;20558;-72
2022/09/25 11:20:28;;;;;;;0.70;0.70;;;17.40;76.00;;;;;;4881245;29;20490;-72
2022/09/25 11:23:03;;;;;;;0.80;0.80;;;17.40;75.90;;;;;;4881567;29;20443;-72
2022/09/25 11:25:39;;;;;;;1.00;0.73;;;17.40;76.30;;;;;;4881335;29;20473;-72
2022/09/25 11:28:19;;;;;;;0.90;0.90;;;17.40;76.30;;;;;;4881327;29;20498;-72
2022/09/25 11:30:51;;;;;;;0.97;0.97;;;17.30;75.90;;;;;;4881172;29;20527;-72
2022/09/25 11:33:28;;;;;;;0.90;0.90;;;17.20;75.40;;;;;;4881147;29;20443;-72
2022/09/25 11:35:59;;;;;;;1.00;1.00;;;17.00;76.40;;;;;;4881106;29;20447;-72
2022/09/25 11:41:29;;;;;;;0.93;0.87;;;16.80;77.00;;;;;;4881206;29;20588;-72
2022/09/25 11:44:07;;;;;;;0.90;0.90;;;16.80;78.30;;;;;;4880958;29;20450;-73
2022/09/25 11:46:42;;;;;;;1.00;0.90;;;16.80;78.80;;;;;;4880907;29;20483;-72
2022/09/25 11:49:23;;;;;;;1.00;1.00;;;16.90;79.10;;;;;;4880796;29;20498;-72
2022/09/25 11:52:21;;;;;;;0.80;0.80;;;17.00;79.70;;;;;;4880794;29;20839;-72
2022/09/25 11:55:01;;;;;;;1.10;1.10;;;16.90;79.60;;;;;;4880850;29;20454;-73
2022/09/25 11:57:39;;;;;;;1.27;1.27;;;16.90;79.60;;;;;;4880748;29;20450;-73
2022/09/25 12:00:13;;;;;;;1.30;1.20;;;16.70;79.20;;;;;;4880643;29;20549;-72
2022/09/25 12:02:56;;;;;;;1.20;1.20;;;16.70;79.60;;;;;;4880257;29;20990;-73
2022/09/25 12:05:48;;;;;;;1.20;1.20;;;16.80;79.80;;;;;;4880327;29;20923;-72
2022/09/25 12:08:27;;;;;;;1.30;1.20;;;16.70;79.10;;;;;;4878979;29;20522;-72
2022/09/25 12:11:01;;;;;;;1.13;1.13;;;16.70;79.20;;;;;;4880509;29;20493;-72
2022/09/25 12:13:40;;;;;;;1.40;1.30;;;16.80;79.80;;;;;;4880220;29;21014;-73
2022/09/25 12:16:14;;;;;;;1.10;1.10;;;16.80;79.60;;;;;;4880162;29;20443;-73
2022/09/25 12:19:00;;;;;;;1.20;1.20;;;16.80;79.80;;;;;;4880486;29;20439;-73
2022/09/25 12:21:32;;;;;;;1.10;1.10;;;16.90;80.30;;;;;;4879639;29;20600;-72
2022/09/25 12:24:08;;;;;;;1.30;1.30;;;16.80;80.00;;;;;;4879984;29;20970;-72
2022/09/25 12:26:44;;;;;;;1.30;1.30;;;16.80;80.10;;;;;;4880263;29;20439;-73
2022/09/25 12:29:24;;;;;;;1.30;1.30;;;17.00;80.10;;;;;;4880207;29;20472;-72
2022/09/25 12:31:58;;;;;;;1.17;1.17;;;17.10;79.80;;;;;;4880040;29;20478;-72
2022/09/25 12:34:41;;;;;;;1.03;1.03;;;17.10;80.10;;;;;;4880012;29;20439;-73
2022/09/25 12:37:20;;;;;;;1.43;1.33;;;17.30;80.40;;;;;;4880830;29;20447;-73
2022/09/25 12:39:51;;;;;;;1.40;1.30;;;17.40;80.20;;;;;;4879652;29;20915;-72
2022/09/25 12:42:24;;;;;;;1.20;1.20;;;17.50;79.20;;;;;;4879979;29;20475;-72
2022/09/25 12:44:56;;;;;;;1.30;1.30;;;17.50;80.00;;;;;;4880012;29;20443;-72
2022/09/25 12:47:32;;;;;;;1.40;1.10;;;17.40;79.20;;;;;;4879920;29;20435;-72
2022/09/25 12:50:03;;;;;;;1.20;1.20;;;17.20;81.10;;;;;;4879945;29;20535;-72
2022/09/25 12:52:37;;;;;;;1.30;1.30;;;17.10;80.80;;;;;;4879796;29;20482;-72
2022/09/25 12:55:12;;;;;;;1.20;1.20;;;17.20;81.30;;;;;;4879861;29;20435;-72
2022/09/25 12:57:47;;;;;;;1.60;1.50;;;17.30;80.60;;;;;;4879807;29;20446;-73
2022/09/25 13:00:20;;;;;;;1.50;1.40;;;17.10;80.60;;;;;;4879905;29;20480;-72
2022/09/25 13:02:52;;;;;;;1.40;1.30;;;17.00;81.10;;;;;;4879306;29;20487;-72
2022/09/25 13:05:23;;;;;;;1.13;1.13;;;17.10;82.20;;;;;;4880208;29;20494;-72
2022/09/25 13:07:57;;;;;;;1.13;1.13;;;16.60;81.80;;;;;;4879637;29;20538;-72
2022/09/25 13:10:28;;;;;;;1.60;1.50;;;16.60;82.20;;;;;;4879314;29;20971;-72
2022/09/25 13:12:59;;;;;;;1.50;1.40;;;16.70;83.20;;;;;;4879638;29;20447;-72
2022/09/25 13:15:29;;;;;;;1.30;1.30;;;16.90;82.10;;;;;;4879608;29;20451;-72
2022/09/25 13:17:57;;;;;;;1.30;1.30;;;17.00;83.00;;;;;;4879541;29;20454;-72
2022/09/25 13:20:50;;;;;;;1.13;1.13;;;17.10;83.30;;;;;;4879357;29;20494;-72
2022/09/25 13:23:28;;;;;;;1.10;1.10;;;17.40;82.70;;;;;;4879220;29;20939;-72
2022/09/25 13:25:59;;;;;;;1.30;1.20;;;17.40;81.20;;;;;;4879557;29;20438;-73
2022/09/25 13:28:29;;;;;;;1.33;1.33;;;17.70;81.50;;;;;;4880009;29;20503;-72
2022/09/25 13:31:06;;;;;;;1.30;1.30;;;17.90;80.00;;;;;;4879709;29;20467;-72
2022/09/25 13:33:41;;;;;;;1.30;1.30;;;18.00;79.40;;;;;;4883293;29;20438;-72
2022/09/25 13:36:10;;;;;;;1.13;1.13;;;18.10;79.10;;;;;;4883300;29;20442;-72
2022/09/25 13:41:30;;;;;;;1.20;1.20;;;18.10;76.80;;;;;;4882759;29;20510;-72
2022/09/25 13:44:33;;;;;;;1.23;1.23;;;18.10;77.10;;;;;;4883066;29;20511;-72
2022/09/25 13:47:33;;;;;;;1.33;1.33;;;18.00;76.70;;;;;;4883111;29;20458;-72
2022/09/25 13:50:17;;;;;;;1.37;1.37;;;18.00;75.60;;;;;;4882898;29;20498;-72
2022/09/25 13:53:20;;;;;;;1.13;1.13;;;18.00;76.10;;;;;;4882830;29;20545;-73
2022/09/25 13:56:13;;;;;;;1.33;1.33;;;18.00;77.20;;;;;;4882842;29;20491;-72
2022/09/25 13:59:15;;;;;;;1.30;1.30;;;17.90;77.90;;;;;;4883383;29;20521;-72
2022/09/25 14:01:43;;;;;;;1.20;1.20;;;17.90;78.60;;;;;;4884033;29;20501;-73
2022/09/25 14:04:17;;;;;;;1.30;1.30;;;17.80;78.20;;;;;;4883981;29;20466;-72
2022/09/25 14:06:46;;;;;;;1.47;1.20;;;17.80;78.00;;;;;;4883371;29;20483;-72
2022/09/25 14:09:16;;;;;;;1.10;1.10;;;17.70;78.20;;;;;;4882523;29;20451;-72
2022/09/25 14:11:51;;;;;;;1.20;1.20;;;17.70;78.10;;;;;;4882558;29;20475;-72
2022/09/25 14:14:26;;;;;;;1.10;1.10;;;17.70;78.50;;;;;;4882546;29;20494;-72
2022/09/25 14:16:57;;;;;;;0.93;0.93;;;17.70;78.70;;;;;;4882215;29;20929;-72
2022/09/25 14:19:26;;;;;;;1.10;1.10;;;18.00;78.70;;;;;;4883018;29;20434;-72
2022/09/25 14:21:53;;;;;;;1.10;1.10;;;18.60;77.30;;;;;;4882610;29;20494;-72
2022/09/25 14:24:23;;;;;;;1.20;1.20;;;19.00;75.20;;;;;;4882397;29;20514;-72
2022/09/25 14:26:52;;;;;;;0.90;0.90;;;19.20;74.20;;;;;;4882322;29;20492;-72
2022/09/25 14:29:23;;;;;;;0.93;0.93;;;19.70;72.00;;;;;;4882200;29;20458;-72
2022/09/25 14:32:04;;;;;;;1.00;1.00;;;19.90;71.20;;;;;;4882187;29;20565;-72
2022/09/25 14:34:54;;;;;;;1.13;1.13;;;19.80;70.90;;;;;;4883027;29;20486;-72
2022/09/25 14:37:35;;;;;;;0.90;0.90;;;19.60;71.00;;;;;;4882147;29;20466;-72
2022/09/25 14:40:10;;;;;;;1.10;1.10;;;19.40;71.30;;;;;;4882092;29;20495;-72
2022/09/25 14:43:03;;;;;;;1.10;1.10;;;19.40;71.10;;;;;;4881028;29;20470;-72
2022/09/25 14:46:01;;;;;;;1.20;1.10;;;19.90;70.50;;;;;;4881652;29;21026;-72
2022/09/25 14:48:33;;;;;;;1.03;1.03;;;21.30;67.80;;;;;;4881660;29;20442;-72
2022/09/25 14:51:04;;;;;;;0.90;0.90;;;22.00;65.60;;;;;;4881864;29;20470;-72
2022/09/25 14:53:34;;;;;;;1.00;1.00;;;22.00;63.90;;;;;;4881868;29;20439;-72
2022/09/25 14:56:08;;;;;;;1.30;1.20;;;21.80;64.30;;;;;;4881473;29;21003;-73
2022/09/25 14:58:39;;;;;;;0.90;0.90;;;21.50;64.10;;;;;;4881805;29;20435;-73
2022/09/25 15:01:16;;;;;;;1.10;1.10;;;21.20;64.30;;;;;;4881307;29;21087;-72
2022/09/25 15:03:47;;;;;;;1.13;1.13;;;20.60;65.70;;;;;;4881734;29;20443;-73
2022/09/25 15:06:25;;;;;;;0.83;0.80;;;20.20;67.00;;;;;;4882243;29;20767;-72
2022/09/25 15:08:51;;;;;;;0.90;0.90;;;20.00;68.00;;;;;;4881814;29;20443;-72
2022/09/25 15:11:20;;;;;;;1.03;1.03;;;20.00;68.10;;;;;;4881993;29;20562;-73
2022/09/25 15:13:48;;;;;;;1.03;1.03;;;19.80;68.70;;;;;;4881538;29;20463;-73
2022/09/25 15:19:10;;;;;;;0.97;0.90;;;19.30;69.60;;;;;;4881737;29;20527;-70
2022/09/25 15:21:40;;;;;;;0.90;0.90;;;19.20;70.70;;;;;;4881208;29;20874;-70
2022/09/25 15:24:19;;;;;;;0.90;0.90;;;19.10;72.00;;;;;;4881323;29;20447;-71
2022/09/25 15:26:49;;;;;;;1.30;1.30;;;19.00;72.90;;;;;;4881285;29;20446;-70
2022/09/25 15:29:21;;;;;;;1.00;1.00;;;18.80;71.90;;;;;;4880967;29;20794;-72
2022/09/25 15:31:50;;;;;;;1.20;1.20;;;18.70;71.60;;;;;;4881179;29;20471;-71
2022/09/25 15:34:21;;;;;;;1.00;1.00;;;18.70;71.40;;;;;;4880853;29;20454;-70
2022/09/25 15:36:49;;;;;;;1.20;1.10;;;18.60;71.60;;;;;;4881164;29;20530;-70
2022/09/25 15:39:19;;;;;;;1.03;1.03;;;18.50;72.20;;;;;;4881026;29;20549;-70
2022/09/25 15:41:46;;;;;;;1.10;1.10;;;18.50;72.80;;;;;;4880964;29;20530;-72
2022/09/25 15:44:18;;;;;;;1.10;1.10;;;18.50;72.50;;;;;;4880873;29;20948;-72
2022/09/25 15:46:47;;;;;;;1.00;1.00;;;18.40;72.60;;;;;;4880696;29;20982;-71
2022/09/25 15:49:18;;;;;;;1.03;1.03;;;18.40;73.20;;;;;;4880818;29;20863;-71
2022/09/25 15:51:57;;;;;;;0.87;0.87;;;18.30;73.30;;;;;;4880554;29;21001;-71
2022/09/25 15:54:33;;;;;;;1.10;1.10;;;18.30;73.70;;;;;;4880675;29;20458;-70
2022/09/25 15:57:01;;;;;;;1.87;1.50;;;18.00;74.00;;;;;;4880988;29;20439;-71
2022/09/25 15:59:33;;;;;;;1.30;1.20;;;17.90;74.60;;;;;;4880330;29;20820;-72
2022/09/25 16:04:51;;;;;;;1.03;1.03;;;17.60;75.60;;;;;;4880696;29;20419;-71
2022/09/25 16:07:28;;;;;;;1.33;1.33;;;17.60;75.80;;;;;;4880448;29;20455;-71
2022/09/25 16:09:58;;;;;;;1.27;1.27;;;17.40;76.00;;;;;;4880198;29;20446;-71
2022/09/25 16:12:30;;;;;;;1.30;1.20;;;17.40;76.20;;;;;;4880517;29;20475;-70
2022/09/25 16:14:59;;;;;;;1.00;1.00;;;17.40;76.40;;;;;;4880464;29;20531;-71
2022/09/25 16:17:31;;;;;;;1.60;1.50;;;17.30;76.20;;;;;;4880627;29;20537;-71
2022/09/25 16:20:05;;;;;;;1.20;1.10;;;17.30;76.30;;;;;;4880058;29;20953;-71
2022/09/25 16:22:39;;;;;;;1.00;1.00;;;17.30;76.60;;;;;;4880256;29;20506;-71
2022/09/25 16:25:16;;;;;;;1.00;1.00;;;17.20;76.50;;;;;;4880412;29;20443;-71
2022/09/25 16:27:45;;;;;;;1.20;1.20;;;17.00;76.70;;;;;;4880287;29;20439;-71
2022/09/25 16:30:19;;;;;;;0.90;0.90;;;16.80;77.30;;;;;;4880347;29;20447;-71
2022/09/25 16:32:49;;;;;;;1.00;1.00;;;16.70;78.10;;;;;;4880103;29;20538;-71
2022/09/25 16:35:25;;;;;;;0.90;0.90;;;16.60;78.20;;;;;;4879814;29;20999;-70